sensor_id;sensor_type;location;lat;lon;timestamp;P1;durP1;ratioP1;P2;durP2;ratioP2
52962;SDS011;38827;53.024;6.596;2023-06-14T00:01:02;4.72;;;1.83;;
52962;SDS011;38827;53.024;6.596;2023-06-14T00:03:28;6.85;;;1.83;;
52962;SDS011;38827;53.024;6.596;2023-06-14T00:05:54;5.45;;;2.58;;
52962;SDS011;38827;53.024;6.596;2023-06-14T00:08:20;8.20;;;1.80;;
52962;SDS011;38827;53.024;6.596;2023-06-14T00:10:48;5.60;;;1.70;;
52962;SDS011;38827;53.024;6.596;2023-06-14T00:13:14;3.22;;;1.70;;
52962;SDS011;38827;53.024;6.596;2023-06-14T00:15:42;2.92;;;1.42;;
52962;SDS011;38827;53.024;6.596;2023-06-14T00:18:08;6.28;;;2.15;;
52962;SDS011;38827;53.024;6.596;2023-06-14T00:20:38;4.85;;;2.33;;
52962;SDS011;38827;53.024;6.596;2023-06-14T00:23:07;5.32;;;1.90;;
52962;SDS011;38827;53.024;6.596;2023-06-14T00:25:33;6.22;;;1.85;;
52962;SDS011;38827;53.024;6.596;2023-06-14T00:27:58;6.25;;;1.80;;
52962;SDS011;38827;53.024;6.596;2023-06-14T00:30:27;6.47;;;1.60;;
52962;SDS011;38827;53.024;6.596;2023-06-14T00:32:58;4.50;;;1.70;;
52962;SDS011;38827;53.024;6.596;2023-06-14T00:35:24;4.07;;;1.73;;
52962;SDS011;38827;53.024;6.596;2023-06-14T00:37:51;4.57;;;1.52;;
52962;SDS011;38827;53.024;6.596;2023-06-14T00:40:19;5.20;;;1.80;;
52962;SDS011;38827;53.024;6.596;2023-06-14T00:42:47;4.20;;;1.70;;
52962;SDS011;38827;53.024;6.596;2023-06-14T00:45:17;3.05;;;1.80;;
52962;SDS011;38827;53.024;6.596;2023-06-14T00:47:43;8.32;;;1.60;;
52962;SDS011;38827;53.024;6.596;2023-06-14T00:50:10;3.60;;;1.80;;
52962;SDS011;38827;53.024;6.596;2023-06-14T00:52:36;4.63;;;1.80;;
52962;SDS011;38827;53.024;6.596;2023-06-14T00:55:04;4.00;;;1.63;;
52962;SDS011;38827;53.024;6.596;2023-06-14T00:57:30;5.57;;;1.70;;
52962;SDS011;38827;53.024;6.596;2023-06-14T00:59:57;2.97;;;1.85;;
52962;SDS011;38827;53.024;6.596;2023-06-14T01:02:22;4.50;;;1.80;;
52962;SDS011;38827;53.024;6.596;2023-06-14T01:04:49;3.97;;;1.75;;
52962;SDS011;38827;53.024;6.596;2023-06-14T01:12:31;3.83;;;1.90;;
52962;SDS011;38827;53.024;6.596;2023-06-14T01:15:22;4.75;;;1.98;;
52962;SDS011;38827;53.024;6.596;2023-06-14T01:17:49;7.60;;;2.13;;
52962;SDS011;38827;53.024;6.596;2023-06-14T01:20:16;5.53;;;2.17;;
52962;SDS011;38827;53.024;6.596;2023-06-14T01:22:50;7.85;;;2.30;;
52962;SDS011;38827;53.024;6.596;2023-06-14T01:25:17;5.30;;;2.17;;
52962;SDS011;38827;53.024;6.596;2023-06-14T01:27:46;5.65;;;2.03;;
52962;SDS011;38827;53.024;6.596;2023-06-14T01:30:13;6.65;;;2.17;;
52962;SDS011;38827;53.024;6.596;2023-06-14T01:32:40;6.95;;;2.50;;
52962;SDS011;38827;53.024;6.596;2023-06-14T01:35:06;2.67;;;2.00;;
52962;SDS011;38827;53.024;6.596;2023-06-14T01:37:32;5.50;;;2.70;;
52962;SDS011;38827;53.024;6.596;2023-06-14T01:39:58;6.37;;;2.40;;
52962;SDS011;38827;53.024;6.596;2023-06-14T01:42:27;3.70;;;2.25;;
52962;SDS011;38827;53.024;6.596;2023-06-14T01:44:53;6.07;;;2.08;;
52962;SDS011;38827;53.024;6.596;2023-06-14T01:47:19;4.88;;;2.38;;
52962;SDS011;38827;53.024;6.596;2023-06-14T01:49:46;4.72;;;2.25;;
52962;SDS011;38827;53.024;6.596;2023-06-14T01:52:12;3.13;;;2.00;;
52962;SDS011;38827;53.024;6.596;2023-06-14T01:54:40;4.03;;;2.10;;
52962;SDS011;38827;53.024;6.596;2023-06-14T01:57:07;4.97;;;2.10;;
52962;SDS011;38827;53.024;6.596;2023-06-14T01:59:33;6.45;;;2.55;;
52962;SDS011;38827;53.024;6.596;2023-06-14T02:02:03;5.18;;;2.47;;
52962;SDS011;38827;53.024;6.596;2023-06-14T02:04:29;5.80;;;2.42;;
52962;SDS011;38827;53.024;6.596;2023-06-14T02:06:55;5.57;;;2.00;;
52962;SDS011;38827;53.024;6.596;2023-06-14T02:09:23;6.38;;;2.00;;
52962;SDS011;38827;53.024;6.596;2023-06-14T02:11:49;4.20;;;1.98;;
52962;SDS011;38827;53.024;6.596;2023-06-14T02:14:15;2.83;;;2.00;;
52962;SDS011;38827;53.024;6.596;2023-06-14T02:16:41;7.28;;;1.90;;
52962;SDS011;38827;53.024;6.596;2023-06-14T02:19:14;4.03;;;2.00;;
52962;SDS011;38827;53.024;6.596;2023-06-14T02:21:43;2.75;;;1.83;;
52962;SDS011;38827;53.024;6.596;2023-06-14T02:24:09;2.90;;;1.90;;
52962;SDS011;38827;53.024;6.596;2023-06-14T02:26:40;3.78;;;2.00;;
52962;SDS011;38827;53.024;6.596;2023-06-14T02:29:08;3.90;;;2.13;;
52962;SDS011;38827;53.024;6.596;2023-06-14T02:31:36;8.20;;;2.20;;
52962;SDS011;38827;53.024;6.596;2023-06-14T02:34:02;3.97;;;1.83;;
52962;SDS011;38827;53.024;6.596;2023-06-14T02:36:27;4.47;;;1.90;;
52962;SDS011;38827;53.024;6.596;2023-06-14T02:38:56;3.75;;;1.95;;
52962;SDS011;38827;53.024;6.596;2023-06-14T02:41:26;4.53;;;1.90;;
52962;SDS011;38827;53.024;6.596;2023-06-14T02:43:52;8.55;;;2.20;;
52962;SDS011;38827;53.024;6.596;2023-06-14T02:46:18;3.50;;;2.10;;
52962;SDS011;38827;53.024;6.596;2023-06-14T02:48:44;7.68;;;2.28;;
52962;SDS011;38827;53.024;6.596;2023-06-14T02:51:10;3.95;;;2.10;;
52962;SDS011;38827;53.024;6.596;2023-06-14T02:53:38;4.55;;;2.20;;
52962;SDS011;38827;53.024;6.596;2023-06-14T02:56:04;4.22;;;2.25;;
52962;SDS011;38827;53.024;6.596;2023-06-14T02:58:30;5.45;;;2.28;;
52962;SDS011;38827;53.024;6.596;2023-06-14T03:00:56;6.65;;;2.30;;
52962;SDS011;38827;53.024;6.596;2023-06-14T03:03:24;4.95;;;2.25;;
52962;SDS011;38827;53.024;6.596;2023-06-14T03:05:52;4.20;;;2.10;;
52962;SDS011;38827;53.024;6.596;2023-06-14T03:08:19;5.43;;;2.20;;
52962;SDS011;38827;53.024;6.596;2023-06-14T03:10:46;6.22;;;2.20;;
52962;SDS011;38827;53.024;6.596;2023-06-14T03:13:14;3.67;;;2.10;;
52962;SDS011;38827;53.024;6.596;2023-06-14T03:15:41;5.53;;;2.17;;
52962;SDS011;38827;53.024;6.596;2023-06-14T03:20:34;3.28;;;2.45;;
52962;SDS011;38827;53.024;6.596;2023-06-14T03:23:02;4.00;;;2.00;;
52962;SDS011;38827;53.024;6.596;2023-06-14T03:25:30;2.72;;;2.00;;
52962;SDS011;38827;53.024;6.596;2023-06-14T03:27:58;5.10;;;2.30;;
52962;SDS011;38827;53.024;6.596;2023-06-14T03:30:23;3.35;;;2.22;;
52962;SDS011;38827;53.024;6.596;2023-06-14T03:32:49;7.95;;;2.38;;
52962;SDS011;38827;53.024;6.596;2023-06-14T03:35:18;6.50;;;2.80;;
52962;SDS011;38827;53.024;6.596;2023-06-14T03:37:44;3.22;;;2.20;;
52962;SDS011;38827;53.024;6.596;2023-06-14T03:40:11;5.90;;;2.40;;
52962;SDS011;38827;53.024;6.596;2023-06-14T03:42:38;4.75;;;2.28;;
52962;SDS011;38827;53.024;6.596;2023-06-14T03:45:05;5.93;;;2.83;;
52962;SDS011;38827;53.024;6.596;2023-06-14T03:49:57;7.87;;;2.70;;
52962;SDS011;38827;53.024;6.596;2023-06-14T03:52:32;3.33;;;2.30;;
52962;SDS011;38827;53.024;6.596;2023-06-14T03:54:58;4.07;;;2.65;;
52962;SDS011;38827;53.024;6.596;2023-06-14T03:57:33;4.72;;;2.50;;
52962;SDS011;38827;53.024;6.596;2023-06-14T04:00:06;6.45;;;2.72;;
52962;SDS011;38827;53.024;6.596;2023-06-14T04:02:33;2.85;;;2.30;;
52962;SDS011;38827;53.024;6.596;2023-06-14T04:04:59;5.78;;;2.80;;
52962;SDS011;38827;53.024;6.596;2023-06-14T04:07:24;5.47;;;2.72;;
52962;SDS011;38827;53.024;6.596;2023-06-14T04:09:53;5.88;;;2.63;;
52962;SDS011;38827;53.024;6.596;2023-06-14T04:12:19;6.22;;;2.75;;
52962;SDS011;38827;53.024;6.596;2023-06-14T04:14:45;7.65;;;2.70;;
52962;SDS011;38827;53.024;6.596;2023-06-14T04:17:11;5.20;;;2.80;;
52962;SDS011;38827;53.024;6.596;2023-06-14T04:19:44;6.38;;;2.70;;
52962;SDS011;38827;53.024;6.596;2023-06-14T04:22:09;4.75;;;2.67;;
52962;SDS011;38827;53.024;6.596;2023-06-14T04:24:42;5.43;;;2.50;;
52962;SDS011;38827;53.024;6.596;2023-06-14T04:27:10;3.72;;;2.60;;
52962;SDS011;38827;53.024;6.596;2023-06-14T04:29:35;4.43;;;2.70;;
52962;SDS011;38827;53.024;6.596;2023-06-14T04:32:01;5.50;;;2.72;;
52962;SDS011;38827;53.024;6.596;2023-06-14T04:34:30;5.50;;;2.80;;
52962;SDS011;38827;53.024;6.596;2023-06-14T04:36:59;6.65;;;2.60;;
52962;SDS011;38827;53.024;6.596;2023-06-14T04:39:27;5.82;;;2.92;;
52962;SDS011;38827;53.024;6.596;2023-06-14T04:41:53;5.20;;;2.75;;
52962;SDS011;38827;53.024;6.596;2023-06-14T04:44:22;4.68;;;3.03;;
52962;SDS011;38827;53.024;6.596;2023-06-14T04:46:58;4.03;;;2.95;;
52962;SDS011;38827;53.024;6.596;2023-06-14T04:49:25;5.25;;;2.67;;
52962;SDS011;38827;53.024;6.596;2023-06-14T04:54:22;4.65;;;2.78;;
52962;SDS011;38827;53.024;6.596;2023-06-14T04:56:53;6.38;;;2.95;;
52962;SDS011;38827;53.024;6.596;2023-06-14T04:59:22;6.35;;;2.65;;
52962;SDS011;38827;53.024;6.596;2023-06-14T05:01:50;6.50;;;2.80;;
52962;SDS011;38827;53.024;6.596;2023-06-14T05:04:18;6.15;;;2.70;;
52962;SDS011;38827;53.024;6.596;2023-06-14T05:06:45;4.65;;;2.78;;
52962;SDS011;38827;53.024;6.596;2023-06-14T05:09:12;6.40;;;3.20;;
52962;SDS011;38827;53.024;6.596;2023-06-14T05:11:39;6.57;;;3.03;;
52962;SDS011;38827;53.024;6.596;2023-06-14T05:14:07;4.22;;;2.60;;
52962;SDS011;38827;53.024;6.596;2023-06-14T05:16:33;5.00;;;3.20;;
52962;SDS011;38827;53.024;6.596;2023-06-14T05:18:59;5.53;;;3.00;;
52962;SDS011;38827;53.024;6.596;2023-06-14T05:21:30;5.30;;;3.38;;
52962;SDS011;38827;53.024;6.596;2023-06-14T05:24:01;5.18;;;3.00;;
52962;SDS011;38827;53.024;6.596;2023-06-14T05:26:27;4.60;;;2.83;;
52962;SDS011;38827;53.024;6.596;2023-06-14T05:29:05;5.43;;;2.90;;
52962;SDS011;38827;53.024;6.596;2023-06-14T05:31:31;5.35;;;2.95;;
52962;SDS011;38827;53.024;6.596;2023-06-14T05:34:00;6.65;;;2.60;;
52962;SDS011;38827;53.024;6.596;2023-06-14T05:36:29;4.75;;;3.08;;
52962;SDS011;38827;53.024;6.596;2023-06-14T05:41:32;5.35;;;2.60;;
52962;SDS011;38827;53.024;6.596;2023-06-14T05:46:38;6.78;;;3.05;;
52962;SDS011;38827;53.024;6.596;2023-06-14T05:49:15;4.10;;;2.90;;
52962;SDS011;38827;53.024;6.596;2023-06-14T05:51:42;7.40;;;2.90;;
52962;SDS011;38827;53.024;6.596;2023-06-14T05:56:37;4.07;;;2.60;;
52962;SDS011;38827;53.024;6.596;2023-06-14T05:59:05;6.22;;;3.28;;
52962;SDS011;38827;53.024;6.596;2023-06-14T06:01:31;5.90;;;2.95;;
52962;SDS011;38827;53.024;6.596;2023-06-14T06:03:58;5.53;;;2.58;;
52962;SDS011;38827;53.024;6.596;2023-06-14T06:06:24;5.07;;;3.00;;
52962;SDS011;38827;53.024;6.596;2023-06-14T06:08:53;5.28;;;2.55;;
52962;SDS011;38827;53.024;6.596;2023-06-14T06:11:21;4.90;;;2.92;;
52962;SDS011;38827;53.024;6.596;2023-06-14T06:13:47;5.40;;;2.50;;
52962;SDS011;38827;53.024;6.596;2023-06-14T06:16:18;3.67;;;2.40;;
52962;SDS011;38827;53.024;6.596;2023-06-14T06:18:44;3.55;;;2.50;;
52962;SDS011;38827;53.024;6.596;2023-06-14T06:21:10;6.30;;;2.72;;
52962;SDS011;38827;53.024;6.596;2023-06-14T06:23:47;6.50;;;2.50;;
52962;SDS011;38827;53.024;6.596;2023-06-14T06:26:19;6.60;;;2.65;;
52962;SDS011;38827;53.024;6.596;2023-06-14T06:28:45;4.97;;;2.78;;
52962;SDS011;38827;53.024;6.596;2023-06-14T06:31:13;6.72;;;2.65;;
52962;SDS011;38827;53.024;6.596;2023-06-14T06:33:38;7.30;;;2.58;;
52962;SDS011;38827;53.024;6.596;2023-06-14T06:36:13;7.55;;;2.30;;
52962;SDS011;38827;53.024;6.596;2023-06-14T06:38:39;8.43;;;2.50;;
52962;SDS011;38827;53.024;6.596;2023-06-14T06:41:05;8.37;;;2.57;;
52962;SDS011;38827;53.024;6.596;2023-06-14T06:43:31;3.83;;;2.40;;
52962;SDS011;38827;53.024;6.596;2023-06-14T06:45:57;5.78;;;2.28;;
52962;SDS011;38827;53.024;6.596;2023-06-14T06:48:29;6.55;;;2.35;;
52962;SDS011;38827;53.024;6.596;2023-06-14T06:51:01;9.02;;;2.33;;
52962;SDS011;38827;53.024;6.596;2023-06-14T06:53:26;3.80;;;2.15;;
52962;SDS011;38827;53.024;6.596;2023-06-14T06:55:55;6.13;;;2.47;;
52962;SDS011;38827;53.024;6.596;2023-06-14T06:58:23;3.97;;;2.45;;
52962;SDS011;38827;53.024;6.596;2023-06-14T07:00:54;4.10;;;1.73;;
52962;SDS011;38827;53.024;6.596;2023-06-14T07:06:59;4.30;;;1.90;;
52962;SDS011;38827;53.024;6.596;2023-06-14T07:09:55;4.28;;;2.10;;
52962;SDS011;38827;53.024;6.596;2023-06-14T07:12:22;2.58;;;2.00;;
52962;SDS011;38827;53.024;6.596;2023-06-14T07:15:12;5.22;;;2.40;;
52962;SDS011;38827;53.024;6.596;2023-06-14T07:17:41;4.00;;;1.80;;
52962;SDS011;38827;53.024;6.596;2023-06-14T07:20:10;5.53;;;1.90;;
52962;SDS011;38827;53.024;6.596;2023-06-14T07:22:40;4.10;;;2.22;;
52962;SDS011;38827;53.024;6.596;2023-06-14T07:27:32;3.07;;;2.17;;
52962;SDS011;38827;53.024;6.596;2023-06-14T07:46:51;4.85;;;1.85;;
52962;SDS011;38827;53.024;6.596;2023-06-14T07:49:19;6.00;;;2.00;;
52962;SDS011;38827;53.024;6.596;2023-06-14T07:55:56;4.25;;;2.00;;
52962;SDS011;38827;53.024;6.596;2023-06-14T07:58:50;3.80;;;2.03;;
52962;SDS011;38827;53.024;6.596;2023-06-14T08:15:57;3.45;;;1.67;;
52962;SDS011;38827;53.024;6.596;2023-06-14T08:18:32;4.90;;;1.80;;
52962;SDS011;38827;53.024;6.596;2023-06-14T08:26:32;3.23;;;1.60;;
52962;SDS011;38827;53.024;6.596;2023-06-14T08:40:57;3.15;;;1.63;;
52962;SDS011;38827;53.024;6.596;2023-06-14T08:46:02;4.28;;;1.35;;
52962;SDS011;38827;53.024;6.596;2023-06-14T08:51:25;5.63;;;1.90;;
52962;SDS011;38827;53.024;6.596;2023-06-14T08:54:13;3.30;;;1.70;;
52962;SDS011;38827;53.024;6.596;2023-06-14T08:56:40;3.50;;;1.67;;
52962;SDS011;38827;53.024;6.596;2023-06-14T08:59:25;6.85;;;2.20;;
52962;SDS011;38827;53.024;6.596;2023-06-14T09:01:55;5.93;;;2.03;;
52962;SDS011;38827;53.024;6.596;2023-06-14T09:04:22;3.50;;;1.80;;
52962;SDS011;38827;53.024;6.596;2023-06-14T09:07:10;4.57;;;1.73;;
52962;SDS011;38827;53.024;6.596;2023-06-14T09:10:03;5.78;;;1.55;;
52962;SDS011;38827;53.024;6.596;2023-06-14T09:13:01;3.97;;;1.67;;
52962;SDS011;38827;53.024;6.596;2023-06-14T09:18:15;5.47;;;1.60;;
52962;SDS011;38827;53.024;6.596;2023-06-14T09:20:44;3.75;;;1.80;;
52962;SDS011;38827;53.024;6.596;2023-06-14T09:23:24;4.07;;;1.65;;
52962;SDS011;38827;53.024;6.596;2023-06-14T09:28:48;4.30;;;1.55;;
52962;SDS011;38827;53.024;6.596;2023-06-14T09:34:03;6.97;;;1.90;;
52962;SDS011;38827;53.024;6.596;2023-06-14T09:36:30;2.83;;;1.60;;
52962;SDS011;38827;53.024;6.596;2023-06-14T09:39:00;7.93;;;2.15;;
52962;SDS011;38827;53.024;6.596;2023-06-14T09:41:39;2.90;;;1.67;;
52962;SDS011;38827;53.024;6.596;2023-06-14T09:44:06;2.78;;;1.60;;
52962;SDS011;38827;53.024;6.596;2023-06-14T09:46:33;3.83;;;1.60;;
52962;SDS011;38827;53.024;6.596;2023-06-14T09:48:59;5.07;;;1.70;;
52962;SDS011;38827;53.024;6.596;2023-06-14T09:51:27;3.83;;;1.73;;
52962;SDS011;38827;53.024;6.596;2023-06-14T09:53:53;4.10;;;1.65;;
52962;SDS011;38827;53.024;6.596;2023-06-14T09:59:09;5.33;;;1.80;;
52962;SDS011;38827;53.024;6.596;2023-06-14T10:01:41;3.83;;;1.73;;
52962;SDS011;38827;53.024;6.596;2023-06-14T10:04:10;2.38;;;1.50;;
52962;SDS011;38827;53.024;6.596;2023-06-14T10:09:13;2.58;;;1.30;;
52962;SDS011;38827;53.024;6.596;2023-06-14T10:11:39;3.47;;;1.80;;
52962;SDS011;38827;53.024;6.596;2023-06-14T10:14:08;5.03;;;1.60;;
52962;SDS011;38827;53.024;6.596;2023-06-14T10:16:42;7.90;;;1.50;;
52962;SDS011;38827;53.024;6.596;2023-06-14T10:19:19;3.00;;;1.70;;
52962;SDS011;38827;53.024;6.596;2023-06-14T10:22:19;2.83;;;1.60;;
52962;SDS011;38827;53.024;6.596;2023-06-14T10:24:54;3.63;;;1.70;;
52962;SDS011;38827;53.024;6.596;2023-06-14T10:27:24;5.85;;;1.70;;
52962;SDS011;38827;53.024;6.596;2023-06-14T10:32:18;2.05;;;1.52;;
52962;SDS011;38827;53.024;6.596;2023-06-14T10:34:45;6.10;;;1.48;;
52962;SDS011;38827;53.024;6.596;2023-06-14T10:37:12;2.15;;;1.40;;
52962;SDS011;38827;53.024;6.596;2023-06-14T10:39:40;4.75;;;1.42;;
52962;SDS011;38827;53.024;6.596;2023-06-14T10:42:07;3.97;;;1.60;;
52962;SDS011;38827;53.024;6.596;2023-06-14T10:50:09;5.60;;;1.05;;
52962;SDS011;38827;53.024;6.596;2023-06-14T10:52:53;2.40;;;1.30;;
52962;SDS011;38827;53.024;6.596;2023-06-14T10:55:21;3.95;;;1.25;;
52962;SDS011;38827;53.024;6.596;2023-06-14T10:57:48;2.53;;;1.15;;
52962;SDS011;38827;53.024;6.596;2023-06-14T11:00:24;3.13;;;1.23;;
52962;SDS011;38827;53.024;6.596;2023-06-14T11:05:25;1.70;;;1.20;;
52962;SDS011;38827;53.024;6.596;2023-06-14T11:10:39;2.28;;;1.33;;
52962;SDS011;38827;53.024;6.596;2023-06-14T11:13:06;4.20;;;1.40;;
52962;SDS011;38827;53.024;6.596;2023-06-14T11:18:00;20.73;;;1.83;;
52962;SDS011;38827;53.024;6.596;2023-06-14T11:20:29;4.10;;;1.13;;
52962;SDS011;38827;53.024;6.596;2023-06-14T11:22:56;5.50;;;1.23;;
52962;SDS011;38827;53.024;6.596;2023-06-14T11:25:21;4.90;;;1.47;;
52962;SDS011;38827;53.024;6.596;2023-06-14T11:27:49;1.92;;;1.20;;
52962;SDS011;38827;53.024;6.596;2023-06-14T11:30:15;5.18;;;1.40;;
52962;SDS011;38827;53.024;6.596;2023-06-14T11:32:41;5.20;;;1.30;;
52962;SDS011;38827;53.024;6.596;2023-06-14T11:35:10;3.37;;;1.27;;
52962;SDS011;38827;53.024;6.596;2023-06-14T11:37:36;4.10;;;1.30;;
52962;SDS011;38827;53.024;6.596;2023-06-14T11:40:03;2.25;;;1.25;;
52962;SDS011;38827;53.024;6.596;2023-06-14T11:42:34;3.55;;;1.45;;
52962;SDS011;38827;53.024;6.596;2023-06-14T11:45:01;3.42;;;1.30;;
52962;SDS011;38827;53.024;6.596;2023-06-14T11:47:31;2.90;;;1.50;;
52962;SDS011;38827;53.024;6.596;2023-06-14T11:49:58;3.70;;;1.30;;
52962;SDS011;38827;53.024;6.596;2023-06-14T11:52:24;3.20;;;1.02;;
52962;SDS011;38827;53.024;6.596;2023-06-14T11:54:50;1.60;;;1.20;;
52962;SDS011;38827;53.024;6.596;2023-06-14T11:57:17;1.85;;;1.38;;
52962;SDS011;38827;53.024;6.596;2023-06-14T11:59:44;4.40;;;1.50;;
52962;SDS011;38827;53.024;6.596;2023-06-14T12:02:14;4.93;;;1.40;;
52962;SDS011;38827;53.024;6.596;2023-06-14T12:04:41;5.82;;;1.30;;
52962;SDS011;38827;53.024;6.596;2023-06-14T12:07:12;5.10;;;1.40;;
52962;SDS011;38827;53.024;6.596;2023-06-14T12:12:20;2.80;;;1.35;;
52962;SDS011;38827;53.024;6.596;2023-06-14T12:14:47;3.08;;;1.30;;
52962;SDS011;38827;53.024;6.596;2023-06-14T12:17:13;4.68;;;1.35;;
52962;SDS011;38827;53.024;6.596;2023-06-14T12:19:42;4.82;;;1.40;;
52962;SDS011;38827;53.024;6.596;2023-06-14T12:22:10;4.47;;;1.50;;
52962;SDS011;38827;53.024;6.596;2023-06-14T12:24:36;4.93;;;1.30;;
52962;SDS011;38827;53.024;6.596;2023-06-14T12:27:03;3.33;;;1.13;;
52962;SDS011;38827;53.024;6.596;2023-06-14T12:29:29;3.28;;;1.25;;
52962;SDS011;38827;53.024;6.596;2023-06-14T12:31:56;2.97;;;1.10;;
52962;SDS011;38827;53.024;6.596;2023-06-14T12:34:37;4.68;;;1.27;;
52962;SDS011;38827;53.024;6.596;2023-06-14T12:39:31;1.95;;;1.38;;
52962;SDS011;38827;53.024;6.596;2023-06-14T12:41:58;2.05;;;1.10;;
52962;SDS011;38827;53.024;6.596;2023-06-14T12:44:45;4.72;;;1.33;;
52962;SDS011;38827;53.024;6.596;2023-06-14T12:47:20;3.13;;;1.33;;
52962;SDS011;38827;53.024;6.596;2023-06-14T13:09:47;3.63;;;1.42;;
52962;SDS011;38827;53.024;6.596;2023-06-14T13:18:00;2.60;;;1.23;;
52962;SDS011;38827;53.024;6.596;2023-06-14T13:23:50;4.18;;;1.20;;
52962;SDS011;38827;53.024;6.596;2023-06-14T13:26:17;2.00;;;1.20;;
52962;SDS011;38827;53.024;6.596;2023-06-14T13:28:43;3.78;;;1.40;;
52962;SDS011;38827;53.024;6.596;2023-06-14T13:31:09;6.47;;;1.10;;
52962;SDS011;38827;53.024;6.596;2023-06-14T13:39:39;2.30;;;1.23;;
52962;SDS011;38827;53.024;6.596;2023-06-14T13:42:32;3.97;;;1.40;;
52962;SDS011;38827;53.024;6.596;2023-06-14T13:45:10;4.38;;;1.40;;
52962;SDS011;38827;53.024;6.596;2023-06-14T13:50:42;3.03;;;1.40;;
52962;SDS011;38827;53.024;6.596;2023-06-14T13:59:02;3.15;;;1.30;;
52962;SDS011;38827;53.024;6.596;2023-06-14T14:01:47;4.67;;;1.40;;
52962;SDS011;38827;53.024;6.596;2023-06-14T14:04:20;5.95;;;1.50;;
52962;SDS011;38827;53.024;6.596;2023-06-14T14:06:52;4.05;;;1.42;;
52962;SDS011;38827;53.024;6.596;2023-06-14T14:15:37;5.88;;;1.50;;
52962;SDS011;38827;53.024;6.596;2023-06-14T14:18:15;5.07;;;1.30;;
52962;SDS011;38827;53.024;6.596;2023-06-14T14:23:46;2.88;;;1.38;;
52962;SDS011;38827;53.024;6.596;2023-06-14T14:31:39;2.53;;;1.35;;
52962;SDS011;38827;53.024;6.596;2023-06-14T14:34:07;5.32;;;1.40;;
52962;SDS011;38827;53.024;6.596;2023-06-14T14:39:38;5.53;;;1.67;;
52962;SDS011;38827;53.024;6.596;2023-06-14T14:42:16;2.13;;;1.20;;
52962;SDS011;38827;53.024;6.596;2023-06-14T14:44:55;1.35;;;1.23;;
52962;SDS011;38827;53.024;6.596;2023-06-14T14:47:42;9.68;;;1.52;;
52962;SDS011;38827;53.024;6.596;2023-06-14T14:50:10;1.80;;;1.27;;
52962;SDS011;38827;53.024;6.596;2023-06-14T14:55:12;2.50;;;1.52;;
52962;SDS011;38827;53.024;6.596;2023-06-14T15:00:16;4.05;;;1.40;;
52962;SDS011;38827;53.024;6.596;2023-06-14T15:02:42;3.00;;;1.50;;
52962;SDS011;38827;53.024;6.596;2023-06-14T15:07:52;4.57;;;1.20;;
52962;SDS011;38827;53.024;6.596;2023-06-14T15:10:18;3.53;;;1.30;;
52962;SDS011;38827;53.024;6.596;2023-06-14T15:18:34;2.58;;;1.20;;
52962;SDS011;38827;53.024;6.596;2023-06-14T15:26:41;3.45;;;1.40;;
52962;SDS011;38827;53.024;6.596;2023-06-14T15:29:07;3.15;;;1.30;;
52962;SDS011;38827;53.024;6.596;2023-06-14T15:31:58;5.10;;;1.60;;
52962;SDS011;38827;53.024;6.596;2023-06-14T15:34:27;2.95;;;1.52;;
52962;SDS011;38827;53.024;6.596;2023-06-14T15:40:02;3.30;;;1.52;;
52962;SDS011;38827;53.024;6.596;2023-06-14T15:42:37;2.22;;;1.50;;
52962;SDS011;38827;53.024;6.596;2023-06-14T15:45:12;2.17;;;1.60;;
52962;SDS011;38827;53.024;6.596;2023-06-14T15:48:00;2.20;;;1.42;;
52962;SDS011;38827;53.024;6.596;2023-06-14T15:50:26;2.20;;;1.50;;
52962;SDS011;38827;53.024;6.596;2023-06-14T15:52:52;5.30;;;1.85;;
52962;SDS011;38827;53.024;6.596;2023-06-14T15:55:18;2.50;;;1.38;;
52962;SDS011;38827;53.024;6.596;2023-06-14T16:00:32;5.40;;;1.80;;
52962;SDS011;38827;53.024;6.596;2023-06-14T16:08:55;3.80;;;1.70;;
52962;SDS011;38827;53.024;6.596;2023-06-14T16:11:33;2.70;;;1.70;;
52962;SDS011;38827;53.024;6.596;2023-06-14T16:13:59;4.03;;;1.70;;
52962;SDS011;38827;53.024;6.596;2023-06-14T16:21:50;2.72;;;1.85;;
52962;SDS011;38827;53.024;6.596;2023-06-14T16:26:51;3.67;;;1.60;;
52962;SDS011;38827;53.024;6.596;2023-06-14T16:29:31;2.05;;;1.63;;
52962;SDS011;38827;53.024;6.596;2023-06-14T16:37:36;2.20;;;1.70;;
52962;SDS011;38827;53.024;6.596;2023-06-14T16:40:31;3.28;;;1.90;;
52962;SDS011;38827;53.024;6.596;2023-06-14T16:43:06;4.53;;;2.17;;
52962;SDS011;38827;53.024;6.596;2023-06-14T16:45:41;4.75;;;2.00;;
52962;SDS011;38827;53.024;6.596;2023-06-14T16:48:16;4.38;;;1.95;;
52962;SDS011;38827;53.024;6.596;2023-06-14T16:56:53;3.35;;;1.98;;
52962;SDS011;38827;53.024;6.596;2023-06-14T16:59:25;4.35;;;1.90;;
52962;SDS011;38827;53.024;6.596;2023-06-14T17:01:51;3.38;;;2.03;;
52962;SDS011;38827;53.024;6.596;2023-06-14T17:04:57;8.75;;;1.88;;
52962;SDS011;38827;53.024;6.596;2023-06-14T17:07:25;4.25;;;2.20;;
52962;SDS011;38827;53.024;6.596;2023-06-14T17:18:23;4.35;;;2.03;;
52962;SDS011;38827;53.024;6.596;2023-06-14T17:21:06;4.50;;;1.73;;
52962;SDS011;38827;53.024;6.596;2023-06-14T17:23:35;7.13;;;2.20;;
52962;SDS011;38827;53.024;6.596;2023-06-14T17:28:56;4.07;;;2.28;;
52962;SDS011;38827;53.024;6.596;2023-06-14T17:31:28;3.33;;;1.92;;
52962;SDS011;38827;53.024;6.596;2023-06-14T17:34:15;4.32;;;2.38;;
52962;SDS011;38827;53.024;6.596;2023-06-14T17:37:08;5.68;;;1.90;;
52962;SDS011;38827;53.024;6.596;2023-06-14T17:39:52;4.32;;;1.85;;
52962;SDS011;38827;53.024;6.596;2023-06-14T17:42:33;6.00;;;2.15;;
52962;SDS011;38827;53.024;6.596;2023-06-14T17:52:11;5.90;;;2.20;;
52962;SDS011;38827;53.024;6.596;2023-06-14T17:54:55;8.68;;;2.50;;
52962;SDS011;38827;53.024;6.596;2023-06-14T17:57:23;5.82;;;2.22;;
52962;SDS011;38827;53.024;6.596;2023-06-14T18:02:41;5.35;;;2.05;;
52962;SDS011;38827;53.024;6.596;2023-06-14T18:07:42;6.95;;;2.20;;
52962;SDS011;38827;53.024;6.596;2023-06-14T18:10:53;8.55;;;2.38;;
52962;SDS011;38827;53.024;6.596;2023-06-14T18:13:22;6.23;;;2.30;;
52962;SDS011;38827;53.024;6.596;2023-06-14T18:15:51;6.13;;;2.47;;
52962;SDS011;38827;53.024;6.596;2023-06-14T18:18:29;10.73;;;2.28;;
52962;SDS011;38827;53.024;6.596;2023-06-14T18:21:09;3.63;;;2.20;;
52962;SDS011;38827;53.024;6.596;2023-06-14T18:23:45;6.03;;;2.40;;
52962;SDS011;38827;53.024;6.596;2023-06-14T18:26:29;6.32;;;2.30;;
52962;SDS011;38827;53.024;6.596;2023-06-14T18:29:04;6.73;;;2.30;;
52962;SDS011;38827;53.024;6.596;2023-06-14T18:31:38;4.57;;;2.17;;
52962;SDS011;38827;53.024;6.596;2023-06-14T18:34:16;7.15;;;2.17;;
52962;SDS011;38827;53.024;6.596;2023-06-14T18:37:19;9.15;;;2.38;;
52962;SDS011;38827;53.024;6.596;2023-06-14T18:39:45;10.07;;;2.40;;
52962;SDS011;38827;53.024;6.596;2023-06-14T18:42:20;3.30;;;2.00;;
52962;SDS011;38827;53.024;6.596;2023-06-14T18:44:56;6.30;;;2.20;;
52962;SDS011;38827;53.024;6.596;2023-06-14T18:47:31;4.90;;;2.15;;
52962;SDS011;38827;53.024;6.596;2023-06-14T18:49:57;5.45;;;2.65;;
52962;SDS011;38827;53.024;6.596;2023-06-14T18:52:43;6.57;;;2.47;;
52962;SDS011;38827;53.024;6.596;2023-06-14T18:55:12;3.97;;;2.90;;
52962;SDS011;38827;53.024;6.596;2023-06-14T18:57:50;5.85;;;2.03;;
52962;SDS011;38827;53.024;6.596;2023-06-14T19:03:10;6.32;;;2.30;;
52962;SDS011;38827;53.024;6.596;2023-06-14T19:05:41;4.40;;;2.40;;
52962;SDS011;38827;53.024;6.596;2023-06-14T19:08:07;5.30;;;2.00;;
52962;SDS011;38827;53.024;6.596;2023-06-14T19:10:58;8.15;;;2.30;;
52962;SDS011;38827;53.024;6.596;2023-06-14T19:13:47;8.20;;;2.90;;
52962;SDS011;38827;53.024;6.596;2023-06-14T19:16:15;4.00;;;2.25;;
52962;SDS011;38827;53.024;6.596;2023-06-14T19:21:48;5.93;;;2.20;;
52962;SDS011;38827;53.024;6.596;2023-06-14T19:24:32;6.20;;;2.47;;
52962;SDS011;38827;53.024;6.596;2023-06-14T19:29:45;4.85;;;2.33;;
52962;SDS011;38827;53.024;6.596;2023-06-14T19:32:31;7.07;;;2.08;;